createdAt,value
2023-05-19T00:00:26.751Z,63.21
2023-05-19T00:05:30.734Z,63.25
2023-05-19T00:10:33.648Z,63.15
2023-05-19T00:15:36.352Z,63.40
2023-05-19T00:20:38.983Z,63.26
2023-05-19T00:25:41.174Z,63.16
2023-05-19T00:30:43.253Z,63.53
2023-05-19T00:35:45.485Z,63.36
2023-05-19T00:40:47.550Z,63.20
2023-05-19T00:45:49.945Z,63.39
2023-05-19T00:50:54.846Z,63.16
2023-05-19T00:55:58.068Z,63.55
2023-05-19T01:01:05.331Z,63.57
2023-05-19T01:06:09.296Z,63.83
2023-05-19T01:11:11.433Z,63.96
2023-05-19T01:16:32.333Z,64.76
2023-05-19T01:24:45.360Z,65.04
2023-05-19T01:30:19.397Z,64.78
2023-05-19T01:35:26.200Z,64.13
2023-05-19T01:40:30.261Z,64.29
2023-05-19T01:45:34.011Z,64.42
2023-05-19T01:50:36.400Z,64.26
2023-05-19T01:55:50.817Z,64.44
2023-05-19T02:01:17.064Z,64.22
2023-05-19T02:06:57.077Z,64.35
2023-05-19T02:12:09.308Z,64.62
2023-05-19T02:19:45.167Z,64.10
2023-05-19T02:24:48.056Z,64.48
2023-05-19T02:29:50.254Z,64.97
2023-05-19T02:34:53.350Z,65.22
2023-05-19T02:39:55.844Z,65.28
2023-05-19T02:44:58.148Z,65.93
2023-05-19T02:50:00.220Z,65.83
2023-05-19T02:55:03.605Z,66.08
2023-05-19T03:02:14.895Z,65.76
2023-05-19T03:07:17.312Z,66.00
2023-05-19T03:12:19.572Z,65.87
2023-05-19T03:17:21.876Z,65.90
2023-05-19T03:22:23.988Z,65.82
2023-05-19T03:27:29.523Z,65.53
2023-05-19T03:32:33.008Z,65.60
2023-05-19T03:37:35.370Z,65.17
2023-05-19T03:42:37.953Z,64.53
2023-05-19T03:47:41.356Z,64.18
2023-05-19T03:53:18.826Z,63.96
2023-05-19T03:58:20.888Z,64.05
2023-05-19T04:03:56.922Z,64.30
2023-05-19T04:09:00.470Z,63.64
2023-05-19T04:14:02.713Z,63.87
2023-05-19T04:19:04.674Z,64.97
2023-05-19T04:27:58.901Z,64.30
2023-05-19T04:33:01.503Z,64.55
2023-05-19T04:38:04.179Z,64.78
2023-05-19T04:43:09.595Z,64.70
2023-05-19T04:48:12.277Z,64.46
2023-05-19T04:53:15.657Z,64.73
2023-05-19T04:58:19.864Z,64.63
2023-05-19T05:03:23.257Z,64.46
2023-05-19T05:08:27.154Z,64.76
2023-05-19T05:13:30.543Z,65.29
2023-05-19T05:18:33.880Z,65.41
2023-05-19T05:23:36.734Z,65.27
2023-05-19T05:28:41.850Z,65.34
2023-05-19T05:33:44.817Z,64.92
2023-05-19T05:38:48.768Z,64.93
2023-05-19T05:43:51.183Z,64.95
2023-05-19T05:48:54.153Z,64.21
2023-05-19T05:53:57.678Z,64.42
2023-05-19T05:59:07.319Z,64.02
2023-05-19T06:04:10.435Z,63.04
2023-05-19T06:09:12.550Z,62.64
2023-05-19T06:14:14.877Z,62.63
2023-05-19T06:19:36.992Z,62.23
2023-05-19T06:24:39.641Z,61.93
2023-05-19T06:29:44.307Z,61.45
2023-05-19T06:34:54.112Z,60.96
2023-05-19T06:39:56.843Z,60.56
2023-05-19T06:45:00.198Z,60.13
2023-05-19T06:50:03.070Z,59.63
2023-05-19T06:55:13.292Z,59.66
2023-05-19T07:00:31.116Z,59.44
2023-05-19T07:05:34.027Z,58.67
2023-05-19T07:10:39.271Z,58.21
2023-05-19T07:15:45.886Z,57.86
2023-05-19T07:20:48.258Z,58.09
2023-05-19T07:25:57.002Z,57.57
2023-05-19T07:30:59.394Z,57.45
2023-05-19T07:36:01.507Z,56.47
2023-05-19T07:41:03.971Z,55.17
2023-05-19T07:46:06.532Z,54.11
2023-05-19T07:51:10.337Z,53.29
2023-05-19T07:56:12.376Z,52.84
2023-05-19T08:01:14.480Z,51.95
2023-05-19T08:06:16.629Z,51.43
2023-05-19T08:11:18.722Z,51.17
2023-05-19T08:16:20.925Z,49.76
2023-05-19T08:21:23.261Z,49.04
2023-05-19T08:26:26.417Z,48.71
2023-05-19T08:31:29.496Z,47.29
2023-05-19T08:36:31.704Z,46.33
2023-05-19T08:41:33.831Z,45.06
2023-05-19T08:46:36.290Z,44.59
2023-05-19T08:51:48.497Z,42.74
2023-05-19T08:56:50.651Z,44.84
2023-05-19T09:01:54.963Z,46.24
2023-05-19T09:06:58.911Z,48.51
2023-05-19T09:12:01.121Z,48.69
2023-05-19T09:17:03.622Z,49.44
2023-05-19T09:22:54.392Z,50.04
2023-05-19T09:27:56.755Z,50.89
2023-05-19T09:32:59.065Z,51.11
2023-05-19T09:38:01.392Z,51.87
2023-05-19T09:43:08.063Z,53.11
2023-05-19T09:48:47.357Z,53.29
2023-05-19T09:54:10.236Z,52.26
2023-05-19T09:59:16.208Z,52.76
2023-05-19T10:04:18.749Z,52.38
2023-05-19T10:09:25.026Z,51.29
2023-05-19T10:14:29.644Z,51.51
2023-05-19T10:19:31.782Z,52.04
2023-05-19T10:24:34.191Z,52.64
2023-05-19T10:29:40.216Z,52.79
2023-05-19T10:35:01.026Z,52.91
2023-05-19T10:40:13.758Z,51.29
2023-05-19T10:45:24.223Z,51.23
2023-05-19T10:50:26.619Z,51.61
2023-05-19T10:55:52.101Z,51.79
2023-05-19T11:01:01.113Z,53.77
2023-05-19T11:06:30.508Z,54.86
2023-05-19T11:11:50.344Z,55.01
2023-05-19T11:16:56.759Z,54.59
2023-05-19T11:22:13.120Z,53.83
2023-05-19T11:27:34.114Z,54.18
2023-05-19T11:32:39.614Z,54.74
2023-05-19T11:37:42.923Z,55.63
2023-05-19T11:42:45.392Z,55.65
2023-05-19T11:48:01.262Z,55.37
2023-05-19T11:53:04.449Z,55.02
2023-05-19T11:58:07.388Z,53.88
2023-05-19T12:03:10.101Z,53.09
2023-05-19T12:08:12.854Z,52.38
2023-05-19T12:13:15.062Z,53.84
2023-05-19T12:22:56.690Z,52.24
2023-05-19T12:28:00.427Z,51.62
2023-05-19T12:33:03.427Z,51.02
2023-05-19T12:38:07.166Z,51.47
2023-05-19T12:43:19.143Z,52.23
2023-05-19T12:48:24.617Z,52.69
2023-05-19T12:53:28.022Z,53.02
2023-05-19T12:58:34.337Z,51.47
2023-05-19T13:03:43.267Z,49.54
2023-05-19T13:08:47.372Z,51.02
2023-05-19T13:13:56.874Z,51.19
2023-05-19T13:18:59.604Z,51.66
2023-05-19T13:24:03.596Z,51.48
2023-05-19T13:29:06.033Z,51.90
2023-05-19T13:34:08.209Z,50.56
2023-05-19T13:39:10.829Z,50.12
2023-05-19T13:44:13.113Z,49.95
2023-05-19T13:49:15.421Z,50.74
2023-05-19T13:54:18.097Z,51.96
2023-05-19T13:59:21.659Z,53.25
2023-05-19T14:04:24.677Z,54.69
2023-05-19T14:09:28.077Z,55.60
2023-05-19T14:14:35.402Z,55.43
2023-05-19T14:22:59.614Z,54.69
2023-05-19T14:28:02.056Z,54.45
2023-05-19T14:33:04.597Z,54.27
2023-05-19T14:38:07.100Z,53.04
2023-05-19T14:43:09.090Z,52.33
2023-05-19T14:48:12.000Z,52.78
2023-05-19T14:53:14.560Z,52.87
2023-05-19T14:58:27.658Z,51.69
2023-05-19T15:03:30.969Z,51.33
2023-05-19T15:08:33.464Z,51.33
2023-05-19T15:13:35.522Z,52.11
2023-05-19T15:18:37.836Z,52.16
2023-05-19T15:23:40.098Z,52.13
2023-05-19T15:28:42.601Z,51.78
2023-05-19T15:33:44.957Z,51.56
2023-05-19T15:38:47.081Z,51.44
2023-05-19T15:43:49.402Z,51.50
2023-05-19T15:48:51.729Z,51.38
2023-05-19T15:53:57.892Z,51.13
2023-05-19T15:59:00.448Z,50.96
2023-05-19T16:04:05.543Z,51.27
2023-05-19T16:09:07.824Z,51.23
2023-05-19T16:14:09.992Z,51.28
2023-05-19T16:19:12.162Z,51.51
2023-05-19T16:24:14.434Z,52.17
2023-05-19T16:29:16.503Z,52.63
2023-05-19T16:34:18.670Z,53.97
2023-05-19T16:39:21.023Z,53.90
2023-05-19T16:44:24.666Z,53.96
2023-05-19T16:49:26.948Z,54.73
2023-05-19T16:54:29.202Z,55.64
2023-05-19T16:59:31.434Z,57.36
2023-05-19T17:04:33.836Z,58.36
2023-05-19T17:09:36.127Z,59.22
2023-05-19T17:14:38.453Z,59.83
2023-05-19T17:19:40.596Z,59.94
2023-05-19T17:24:42.911Z,59.34
2023-05-19T17:29:45.054Z,59.66
2023-05-19T17:34:47.075Z,59.75
2023-05-19T17:39:49.798Z,60.43
2023-05-19T17:44:52.062Z,61.14
2023-05-19T17:49:54.282Z,62.41
2023-05-19T17:54:56.755Z,62.92
2023-05-19T18:00:00.159Z,63.82
2023-05-19T18:05:02.662Z,63.47
2023-05-19T18:10:06.718Z,64.30
2023-05-19T18:15:09.058Z,64.46
2023-05-19T18:20:11.970Z,64.63
2023-05-19T18:25:14.197Z,65.43
2023-05-19T18:30:16.528Z,66.42
2023-05-19T18:35:20.790Z,67.66
2023-05-19T18:40:23.039Z,68.26
2023-05-19T18:45:25.323Z,68.78
2023-05-19T18:50:27.650Z,69.19
2023-05-19T18:55:30.097Z,69.17
2023-05-19T19:00:32.930Z,69.17
2023-05-19T19:05:37.569Z,69.37
2023-05-19T19:10:40.800Z,69.23
2023-05-19T19:15:43.050Z,69.28
2023-05-19T19:23:05.901Z,68.86
2023-05-19T19:28:08.971Z,69.27
2023-05-19T19:33:11.243Z,69.25
2023-05-19T19:38:13.683Z,69.75
2023-05-19T19:43:15.820Z,70.19
2023-05-19T19:48:18.045Z,69.79
2023-05-19T19:53:20.136Z,68.51
2023-05-19T19:58:22.461Z,66.58
2023-05-19T20:03:25.299Z,65.09
2023-05-19T20:08:30.355Z,64.45
2023-05-19T20:13:32.907Z,64.78
2023-05-19T20:18:35.126Z,64.81
2023-05-19T20:23:42.472Z,64.73
2023-05-19T20:28:49.925Z,65.63
2023-05-19T20:33:52.632Z,67.36
2023-05-19T20:38:55.070Z,68.92
2023-05-19T20:43:57.331Z,70.06
2023-05-19T20:48:59.511Z,70.38
2023-05-19T20:54:01.764Z,70.86
2023-05-19T20:59:06.241Z,71.53
2023-05-19T21:04:08.496Z,71.83
2023-05-19T21:09:10.892Z,72.50
2023-05-19T21:14:13.228Z,73.70
2023-05-19T21:19:15.636Z,73.86
2023-05-19T21:24:17.999Z,74.32
2023-05-19T21:29:20.426Z,74.81
2023-05-19T21:34:23.682Z,75.61
2023-05-19T21:39:25.940Z,76.20
2023-05-19T21:44:28.329Z,74.95
2023-05-19T21:49:33.051Z,75.82
2023-05-19T21:54:44.979Z,75.43
2023-05-19T21:59:51.994Z,75.47
2023-05-19T22:04:55.081Z,74.96
2023-05-19T22:10:02.972Z,74.69
2023-05-19T22:15:06.706Z,74.63
2023-05-19T22:20:09.654Z,74.38
2023-05-19T22:25:11.843Z,75.01
2023-05-19T22:30:14.175Z,75.04
2023-05-19T22:35:16.407Z,74.96
2023-05-19T22:40:19.816Z,75.25
2023-05-19T22:45:22.144Z,75.46
2023-05-19T22:50:24.782Z,76.48
2023-05-19T22:55:27.421Z,76.89
2023-05-19T23:00:35.511Z,76.13
2023-05-19T23:05:40.313Z,76.32
2023-05-19T23:10:42.363Z,76.85
2023-05-19T23:15:44.233Z,79.29
2023-05-19T23:22:52.482Z,76.52
2023-05-19T23:27:55.500Z,76.37
2023-05-19T23:32:58.206Z,76.95
2023-05-19T23:38:03.742Z,77.86
2023-05-19T23:43:06.260Z,77.85
2023-05-19T23:48:11.446Z,78.43
2023-05-19T23:53:13.883Z,77.63
2023-05-19T23:58:16.232Z,77.88
